Terminal Aerodrome Forecast
Issued by NWS Portland, OR

Home | Current Version | Previous Version | Text Only | Print | Product List | Glossary On
Versions: 1 2 3 4 5 6 7 8 9 10 11 12 13 14 15 16 17 18 19 20 21 22 23 24 25 26 27 28 29 30 31 32 33 34 35 36 37 38 39 40 41 42 43 44 45 46 47 48 49 50
000
FTUS46 KPQR 112320
TAFPDX
TAF
KPDX 112320Z 1200/1224 12015KT P6SM SCT250
     FM120400 12010KT P6SM SCT250
     FM120600 13005KT P6SM SCT250
     FM121000 28003KT P6SM SCT250
     FM122000 11005KT 6SM BR SCT250=

USA.gov is the U.S. government's official web portal to all federal, state and local government web resources and services.